Weather at Fish Creek Airport

Public forecast

Using degrees Celsius for public forecast. Weather courtesy of forecast.io.

Closest aviation weather report (METAR) to Fish Creek Airport

Closest report is Melbourne International Airport, 84.7 nm (156.8 km) NW.

2024/06/19 06:30 (retrieved 15 minutes ago)

YMML 190630Z 04009KT 9999 FEW041 BKN270 10/03 Q1015 RF000/0000

Closest aviation forecast (TAF) to Fish Creek Airport

Closest forecast is Melbourne International Airport, 84.7 nm (156.8 km) NW.

2024/06/19 06:00 (retrieved 45 minutes ago)

TAF YMML 190526Z 1906/2012 01010KT CAVOK FM191500 36012KT 9999 SCT040 BECMG 2004/2006 20005KT 9999 BKN030